sensor_id;sensor_type;location;lat;lon;timestamp;P1;durP1;ratioP1;P2;durP2;ratioP2
18857;SDS011;9558;50.178;8.370;2023-02-15T00:01:53;6.30;;;2.97;;
18857;SDS011;9558;50.178;8.370;2023-02-15T00:04:20;11.68;;;4.30;;
18857;SDS011;9558;50.178;8.370;2023-02-15T00:06:48;11.40;;;4.15;;
18857;SDS011;9558;50.178;8.370;2023-02-15T00:09:15;6.22;;;3.03;;
18857;SDS011;9558;50.178;8.370;2023-02-15T00:11:42;4.43;;;2.53;;
18857;SDS011;9558;50.178;8.370;2023-02-15T00:14:15;6.85;;;3.55;;
18857;SDS011;9558;50.178;8.370;2023-02-15T00:16:45;7.00;;;3.38;;
18857;SDS011;9558;50.178;8.370;2023-02-15T00:19:12;5.10;;;2.88;;
18857;SDS011;9558;50.178;8.370;2023-02-15T00:21:40;11.63;;;3.90;;
18857;SDS011;9558;50.178;8.370;2023-02-15T00:24:07;5.85;;;3.35;;
18857;SDS011;9558;50.178;8.370;2023-02-15T00:26:37;8.25;;;3.35;;
18857;SDS011;9558;50.178;8.370;2023-02-15T00:29:05;9.63;;;3.40;;
18857;SDS011;9558;50.178;8.370;2023-02-15T00:31:32;6.72;;;3.03;;
18857;SDS011;9558;50.178;8.370;2023-02-15T00:34:02;8.95;;;3.08;;
18857;SDS011;9558;50.178;8.370;2023-02-15T00:36:29;12.20;;;3.90;;
18857;SDS011;9558;50.178;8.370;2023-02-15T00:38:56;7.93;;;4.45;;
18857;SDS011;9558;50.178;8.370;2023-02-15T00:41:22;6.93;;;4.30;;
18857;SDS011;9558;50.178;8.370;2023-02-15T00:43:49;5.43;;;3.25;;
18857;SDS011;9558;50.178;8.370;2023-02-15T00:46:15;4.30;;;3.08;;
18857;SDS011;9558;50.178;8.370;2023-02-15T00:48:42;10.05;;;3.20;;
18857;SDS011;9558;50.178;8.370;2023-02-15T00:51:09;5.13;;;2.53;;
18857;SDS011;9558;50.178;8.370;2023-02-15T00:53:36;4.88;;;3.58;;
18857;SDS011;9558;50.178;8.370;2023-02-15T00:56:02;7.60;;;2.60;;
18857;SDS011;9558;50.178;8.370;2023-02-15T00:58:29;5.78;;;3.28;;
18857;SDS011;9558;50.178;8.370;2023-02-15T01:01:01;11.60;;;3.33;;
18857;SDS011;9558;50.178;8.370;2023-02-15T01:03:29;10.55;;;3.25;;
18857;SDS011;9558;50.178;8.370;2023-02-15T01:05:55;3.03;;;2.65;;
18857;SDS011;9558;50.178;8.370;2023-02-15T01:08:23;4.93;;;3.55;;
18857;SDS011;9558;50.178;8.370;2023-02-15T01:10:50;8.52;;;3.00;;
18857;SDS011;9558;50.178;8.370;2023-02-15T01:13:17;10.38;;;4.40;;
18857;SDS011;9558;50.178;8.370;2023-02-15T01:15:43;7.10;;;3.45;;
18857;SDS011;9558;50.178;8.370;2023-02-15T01:18:10;9.40;;;4.57;;
18857;SDS011;9558;50.178;8.370;2023-02-15T01:20:38;6.93;;;2.90;;
18857;SDS011;9558;50.178;8.370;2023-02-15T01:23:06;4.38;;;3.05;;
18857;SDS011;9558;50.178;8.370;2023-02-15T01:25:35;6.30;;;3.60;;
18857;SDS011;9558;50.178;8.370;2023-02-15T01:28:02;6.03;;;2.90;;
18857;SDS011;9558;50.178;8.370;2023-02-15T01:30:29;7.35;;;4.13;;
18857;SDS011;9558;50.178;8.370;2023-02-15T01:32:56;9.57;;;3.47;;
18857;SDS011;9558;50.178;8.370;2023-02-15T01:35:23;12.20;;;4.30;;
18857;SDS011;9558;50.178;8.370;2023-02-15T01:37:50;3.72;;;2.53;;
18857;SDS011;9558;50.178;8.370;2023-02-15T01:40:17;6.20;;;3.20;;
18857;SDS011;9558;50.178;8.370;2023-02-15T01:42:45;15.60;;;3.78;;
18857;SDS011;9558;50.178;8.370;2023-02-15T01:45:18;9.60;;;4.05;;
18857;SDS011;9558;50.178;8.370;2023-02-15T01:47:48;12.50;;;4.07;;
18857;SDS011;9558;50.178;8.370;2023-02-15T01:50:20;10.23;;;2.75;;
18857;SDS011;9558;50.178;8.370;2023-02-15T01:52:51;21.10;;;4.40;;
18857;SDS011;9558;50.178;8.370;2023-02-15T01:55:24;6.07;;;3.15;;
18857;SDS011;9558;50.178;8.370;2023-02-15T01:57:54;10.07;;;4.00;;
18857;SDS011;9558;50.178;8.370;2023-02-15T02:00:21;9.10;;;3.60;;
18857;SDS011;9558;50.178;8.370;2023-02-15T02:02:48;12.60;;;5.53;;
18857;SDS011;9558;50.178;8.370;2023-02-15T02:05:18;11.63;;;3.95;;
18857;SDS011;9558;50.178;8.370;2023-02-15T02:07:45;9.27;;;4.07;;
18857;SDS011;9558;50.178;8.370;2023-02-15T02:10:14;6.05;;;3.95;;
18857;SDS011;9558;50.178;8.370;2023-02-15T02:12:45;14.73;;;6.40;;
18857;SDS011;9558;50.178;8.370;2023-02-15T02:15:15;8.82;;;4.72;;
18857;SDS011;9558;50.178;8.370;2023-02-15T02:17:46;10.50;;;4.40;;
18857;SDS011;9558;50.178;8.370;2023-02-15T02:20:37;15.98;;;5.32;;
18857;SDS011;9558;50.178;8.370;2023-02-15T02:26:22;9.07;;;2.58;;
18857;SDS011;9558;50.178;8.370;2023-02-15T02:29:22;7.20;;;3.95;;
18857;SDS011;9558;50.178;8.370;2023-02-15T02:32:15;5.03;;;3.45;;
18857;SDS011;9558;50.178;8.370;2023-02-15T02:35:03;17.30;;;3.78;;
18857;SDS011;9558;50.178;8.370;2023-02-15T02:37:37;6.45;;;2.70;;
18857;SDS011;9558;50.178;8.370;2023-02-15T02:40:13;4.40;;;2.78;;
18857;SDS011;9558;50.178;8.370;2023-02-15T02:42:47;11.93;;;4.30;;
18857;SDS011;9558;50.178;8.370;2023-02-15T02:45:21;12.20;;;3.60;;
18857;SDS011;9558;50.178;8.370;2023-02-15T02:47:53;5.22;;;4.30;;
18857;SDS011;9558;50.178;8.370;2023-02-15T02:50:27;4.80;;;3.83;;
18857;SDS011;9558;50.178;8.370;2023-02-15T02:52:56;8.93;;;5.30;;
18857;SDS011;9558;50.178;8.370;2023-02-15T02:55:24;9.05;;;4.30;;
18857;SDS011;9558;50.178;8.370;2023-02-15T02:57:57;10.25;;;4.60;;
18857;SDS011;9558;50.178;8.370;2023-02-15T03:00:29;11.93;;;6.47;;
18857;SDS011;9558;50.178;8.370;2023-02-15T03:02:59;15.88;;;4.60;;
18857;SDS011;9558;50.178;8.370;2023-02-15T03:05:31;10.63;;;4.03;;
18857;SDS011;9558;50.178;8.370;2023-02-15T03:08:00;6.20;;;3.03;;
18857;SDS011;9558;50.178;8.370;2023-02-15T03:10:31;31.88;;;4.15;;
18857;SDS011;9558;50.178;8.370;2023-02-15T03:13:00;9.02;;;3.08;;
18857;SDS011;9558;50.178;8.370;2023-02-15T03:15:28;21.05;;;4.15;;
18857;SDS011;9558;50.178;8.370;2023-02-15T03:18:17;13.68;;;4.13;;
18857;SDS011;9558;50.178;8.370;2023-02-15T03:20:49;12.68;;;3.67;;
18857;SDS011;9558;50.178;8.370;2023-02-15T03:23:19;14.07;;;4.95;;
18857;SDS011;9558;50.178;8.370;2023-02-15T03:25:50;4.35;;;3.58;;
18857;SDS011;9558;50.178;8.370;2023-02-15T03:28:20;6.53;;;4.50;;
18857;SDS011;9558;50.178;8.370;2023-02-15T03:30:51;12.65;;;4.20;;
18857;SDS011;9558;50.178;8.370;2023-02-15T03:33:21;25.88;;;5.30;;
18857;SDS011;9558;50.178;8.370;2023-02-15T03:35:54;23.73;;;4.78;;
18857;SDS011;9558;50.178;8.370;2023-02-15T03:38:29;16.33;;;3.20;;
18857;SDS011;9558;50.178;8.370;2023-02-15T03:41:00;20.23;;;4.70;;
18857;SDS011;9558;50.178;8.370;2023-02-15T03:43:37;6.20;;;3.50;;
18857;SDS011;9558;50.178;8.370;2023-02-15T03:46:11;7.88;;;3.42;;
18857;SDS011;9558;50.178;8.370;2023-02-15T03:48:43;8.52;;;3.33;;
18857;SDS011;9558;50.178;8.370;2023-02-15T03:51:16;6.78;;;4.47;;
18857;SDS011;9558;50.178;8.370;2023-02-15T03:58:53;6.43;;;4.05;;
18857;SDS011;9558;50.178;8.370;2023-02-15T04:01:38;7.68;;;3.38;;
18857;SDS011;9558;50.178;8.370;2023-02-15T04:04:32;8.27;;;3.25;;
18857;SDS011;9558;50.178;8.370;2023-02-15T04:07:03;10.50;;;4.47;;
18857;SDS011;9558;50.178;8.370;2023-02-15T04:09:31;6.30;;;2.78;;
18857;SDS011;9558;50.178;8.370;2023-02-15T04:12:15;7.13;;;4.40;;
18857;SDS011;9558;50.178;8.370;2023-02-15T04:14:41;9.18;;;3.40;;
18857;SDS011;9558;50.178;8.370;2023-02-15T04:17:25;11.88;;;2.92;;
18857;SDS011;9558;50.178;8.370;2023-02-15T04:19:52;8.13;;;5.10;;
18857;SDS011;9558;50.178;8.370;2023-02-15T04:22:38;12.85;;;3.88;;
18857;SDS011;9558;50.178;8.370;2023-02-15T04:25:22;6.20;;;3.67;;
18857;SDS011;9558;50.178;8.370;2023-02-15T04:27:49;5.68;;;2.92;;
18857;SDS011;9558;50.178;8.370;2023-02-15T04:30:17;5.68;;;3.65;;
18857;SDS011;9558;50.178;8.370;2023-02-15T04:32:45;8.55;;;5.50;;
18857;SDS011;9558;50.178;8.370;2023-02-15T04:35:12;12.35;;;7.05;;
18857;SDS011;9558;50.178;8.370;2023-02-15T04:37:41;10.77;;;3.70;;
18857;SDS011;9558;50.178;8.370;2023-02-15T04:40:08;10.50;;;3.83;;
18857;SDS011;9558;50.178;8.370;2023-02-15T04:42:36;8.73;;;4.75;;
18857;SDS011;9558;50.178;8.370;2023-02-15T04:45:03;9.48;;;4.43;;
18857;SDS011;9558;50.178;8.370;2023-02-15T04:47:30;10.65;;;4.47;;
18857;SDS011;9558;50.178;8.370;2023-02-15T04:49:57;10.85;;;3.17;;
18857;SDS011;9558;50.178;8.370;2023-02-15T04:52:23;11.93;;;3.60;;
18857;SDS011;9558;50.178;8.370;2023-02-15T04:54:51;5.97;;;3.85;;
18857;SDS011;9558;50.178;8.370;2023-02-15T04:57:18;7.53;;;3.55;;
18857;SDS011;9558;50.178;8.370;2023-02-15T04:59:44;12.63;;;3.60;;
18857;SDS011;9558;50.178;8.370;2023-02-15T05:02:11;22.13;;;3.72;;
18857;SDS011;9558;50.178;8.370;2023-02-15T05:04:37;10.85;;;5.28;;
18857;SDS011;9558;50.178;8.370;2023-02-15T05:07:03;8.43;;;3.03;;
18857;SDS011;9558;50.178;8.370;2023-02-15T05:09:30;7.63;;;4.13;;
18857;SDS011;9558;50.178;8.370;2023-02-15T05:11:58;4.35;;;3.42;;
18857;SDS011;9558;50.178;8.370;2023-02-15T05:14:24;14.77;;;4.93;;
18857;SDS011;9558;50.178;8.370;2023-02-15T05:16:51;13.38;;;4.55;;
18857;SDS011;9558;50.178;8.370;2023-02-15T05:19:18;25.08;;;5.10;;
18857;SDS011;9558;50.178;8.370;2023-02-15T05:21:45;9.30;;;6.13;;
18857;SDS011;9558;50.178;8.370;2023-02-15T05:24:11;14.65;;;4.65;;
18857;SDS011;9558;50.178;8.370;2023-02-15T05:26:52;21.90;;;6.57;;
18857;SDS011;9558;50.178;8.370;2023-02-15T05:29:37;7.40;;;3.38;;
18857;SDS011;9558;50.178;8.370;2023-02-15T05:32:04;7.13;;;3.80;;
18857;SDS011;9558;50.178;8.370;2023-02-15T05:34:30;5.13;;;3.95;;
18857;SDS011;9558;50.178;8.370;2023-02-15T05:36:57;4.45;;;3.33;;
18857;SDS011;9558;50.178;8.370;2023-02-15T05:39:23;14.98;;;6.30;;
18857;SDS011;9558;50.178;8.370;2023-02-15T05:41:50;30.02;;;4.50;;
18857;SDS011;9558;50.178;8.370;2023-02-15T05:44:16;12.60;;;4.72;;
18857;SDS011;9558;50.178;8.370;2023-02-15T05:46:44;24.48;;;5.65;;
18857;SDS011;9558;50.178;8.370;2023-02-15T05:49:10;11.32;;;4.03;;
18857;SDS011;9558;50.178;8.370;2023-02-15T05:51:37;37.47;;;4.38;;
18857;SDS011;9558;50.178;8.370;2023-02-15T05:54:03;17.02;;;6.03;;
18857;SDS011;9558;50.178;8.370;2023-02-15T05:56:30;19.88;;;4.88;;
18857;SDS011;9558;50.178;8.370;2023-02-15T05:58:56;29.25;;;4.85;;
18857;SDS011;9558;50.178;8.370;2023-02-15T06:01:23;6.40;;;4.07;;
18857;SDS011;9558;50.178;8.370;2023-02-15T06:03:51;19.25;;;4.82;;
18857;SDS011;9558;50.178;8.370;2023-02-15T06:06:17;9.27;;;4.65;;
18857;SDS011;9558;50.178;8.370;2023-02-15T06:08:44;22.70;;;4.75;;
18857;SDS011;9558;50.178;8.370;2023-02-15T06:11:10;24.55;;;5.53;;
18857;SDS011;9558;50.178;8.370;2023-02-15T06:13:37;26.30;;;4.78;;
18857;SDS011;9558;50.178;8.370;2023-02-15T06:16:03;18.33;;;4.97;;
18857;SDS011;9558;50.178;8.370;2023-02-15T06:18:30;27.65;;;5.30;;
18857;SDS011;9558;50.178;8.370;2023-02-15T06:20:58;43.42;;;6.80;;
18857;SDS011;9558;50.178;8.370;2023-02-15T06:23:24;58.00;;;6.43;;
18857;SDS011;9558;50.178;8.370;2023-02-15T06:25:51;44.08;;;6.38;;
18857;SDS011;9558;50.178;8.370;2023-02-15T06:28:17;12.98;;;5.65;;
18857;SDS011;9558;50.178;8.370;2023-02-15T06:30:44;36.95;;;8.25;;
18857;SDS011;9558;50.178;8.370;2023-02-15T06:33:10;24.33;;;6.13;;
18857;SDS011;9558;50.178;8.370;2023-02-15T06:35:37;35.05;;;4.65;;
18857;SDS011;9558;50.178;8.370;2023-02-15T06:38:04;20.08;;;6.45;;
18857;SDS011;9558;50.178;8.370;2023-02-15T06:40:31;19.23;;;3.88;;
18857;SDS011;9558;50.178;8.370;2023-02-15T06:42:57;32.90;;;5.32;;
18857;SDS011;9558;50.178;8.370;2023-02-15T06:45:24;30.45;;;6.40;;
18857;SDS011;9558;50.178;8.370;2023-02-15T06:47:50;3.75;;;2.85;;
18857;SDS011;9558;50.178;8.370;2023-02-15T06:50:17;7.68;;;3.47;;
18857;SDS011;9558;50.178;8.370;2023-02-15T06:52:43;20.73;;;4.10;;
18857;SDS011;9558;50.178;8.370;2023-02-15T06:55:11;7.47;;;3.50;;
18857;SDS011;9558;50.178;8.370;2023-02-15T06:57:38;15.40;;;4.63;;
18857;SDS011;9558;50.178;8.370;2023-02-15T07:00:04;12.48;;;4.95;;
18857;SDS011;9558;50.178;8.370;2023-02-15T07:02:33;9.27;;;4.70;;
18857;SDS011;9558;50.178;8.370;2023-02-15T07:04:59;17.30;;;4.63;;
18857;SDS011;9558;50.178;8.370;2023-02-15T07:07:26;20.90;;;4.35;;
18857;SDS011;9558;50.178;8.370;2023-02-15T07:09:52;28.75;;;4.43;;
18857;SDS011;9558;50.178;8.370;2023-02-15T07:12:20;5.57;;;3.45;;
18857;SDS011;9558;50.178;8.370;2023-02-15T07:15:04;18.35;;;4.07;;
18857;SDS011;9558;50.178;8.370;2023-02-15T07:17:32;6.60;;;4.32;;
18857;SDS011;9558;50.178;8.370;2023-02-15T07:19:59;51.38;;;5.05;;
18857;SDS011;9558;50.178;8.370;2023-02-15T07:22:25;21.58;;;5.20;;
18857;SDS011;9558;50.178;8.370;2023-02-15T07:24:52;16.38;;;3.58;;
18857;SDS011;9558;50.178;8.370;2023-02-15T07:27:21;10.13;;;4.40;;
18857;SDS011;9558;50.178;8.370;2023-02-15T07:29:47;7.57;;;4.03;;
18857;SDS011;9558;50.178;8.370;2023-02-15T07:32:14;8.82;;;4.00;;
18857;SDS011;9558;50.178;8.370;2023-02-15T07:34:40;11.18;;;2.90;;
18857;SDS011;9558;50.178;8.370;2023-02-15T07:37:06;11.23;;;3.40;;
18857;SDS011;9558;50.178;8.370;2023-02-15T07:39:33;10.27;;;2.97;;
18857;SDS011;9558;50.178;8.370;2023-02-15T07:41:59;14.43;;;3.28;;
18857;SDS011;9558;50.178;8.370;2023-02-15T07:44:27;30.23;;;4.78;;
18857;SDS011;9558;50.178;8.370;2023-02-15T07:46:54;11.52;;;4.38;;
18857;SDS011;9558;50.178;8.370;2023-02-15T07:49:20;8.32;;;4.35;;
18857;SDS011;9558;50.178;8.370;2023-02-15T07:51:47;16.17;;;4.90;;
18857;SDS011;9558;50.178;8.370;2023-02-15T07:54:13;5.63;;;3.28;;
18857;SDS011;9558;50.178;8.370;2023-02-15T07:56:39;3.72;;;2.25;;
18857;SDS011;9558;50.178;8.370;2023-02-15T07:59:06;5.53;;;3.67;;
18857;SDS011;9558;50.178;8.370;2023-02-15T08:01:35;21.02;;;4.70;;
18857;SDS011;9558;50.178;8.370;2023-02-15T08:04:02;4.18;;;2.47;;
18857;SDS011;9558;50.178;8.370;2023-02-15T08:06:31;8.10;;;4.05;;
18857;SDS011;9558;50.178;8.370;2023-02-15T08:09:00;11.95;;;6.25;;
18857;SDS011;9558;50.178;8.370;2023-02-15T08:11:28;17.02;;;4.25;;
18857;SDS011;9558;50.178;8.370;2023-02-15T08:13:58;9.70;;;3.92;;
18857;SDS011;9558;50.178;8.370;2023-02-15T08:16:30;19.23;;;3.50;;
18857;SDS011;9558;50.178;8.370;2023-02-15T08:19:00;11.48;;;4.45;;
18857;SDS011;9558;50.178;8.370;2023-02-15T08:21:29;15.10;;;5.25;;
18857;SDS011;9558;50.178;8.370;2023-02-15T08:23:57;13.63;;;5.70;;
18857;SDS011;9558;50.178;8.370;2023-02-15T08:26:25;7.05;;;4.85;;
18857;SDS011;9558;50.178;8.370;2023-02-15T08:28:52;17.05;;;6.88;;
18857;SDS011;9558;50.178;8.370;2023-02-15T08:31:19;17.75;;;5.80;;
18857;SDS011;9558;50.178;8.370;2023-02-15T08:33:47;9.45;;;4.30;;
18857;SDS011;9558;50.178;8.370;2023-02-15T08:36:17;3.25;;;2.88;;
18857;SDS011;9558;50.178;8.370;2023-02-15T08:38:45;6.00;;;4.03;;
18857;SDS011;9558;50.178;8.370;2023-02-15T08:41:12;6.85;;;3.97;;
18857;SDS011;9558;50.178;8.370;2023-02-15T08:43:41;6.70;;;2.42;;
18857;SDS011;9558;50.178;8.370;2023-02-15T08:46:11;4.13;;;2.25;;
18857;SDS011;9558;50.178;8.370;2023-02-15T08:48:39;5.05;;;3.25;;
18857;SDS011;9558;50.178;8.370;2023-02-15T08:51:06;3.92;;;3.25;;
18857;SDS011;9558;50.178;8.370;2023-02-15T08:53:37;4.65;;;2.25;;
18857;SDS011;9558;50.178;8.370;2023-02-15T08:56:04;6.22;;;3.17;;
18857;SDS011;9558;50.178;8.370;2023-02-15T08:58:31;4.88;;;2.53;;
18857;SDS011;9558;50.178;8.370;2023-02-15T09:00:57;5.28;;;2.65;;
18857;SDS011;9558;50.178;8.370;2023-02-15T09:03:24;6.93;;;3.08;;
18857;SDS011;9558;50.178;8.370;2023-02-15T09:05:56;6.18;;;3.75;;
18857;SDS011;9558;50.178;8.370;2023-02-15T09:08:23;12.40;;;4.30;;
18857;SDS011;9558;50.178;8.370;2023-02-15T09:10:51;17.17;;;4.35;;
18857;SDS011;9558;50.178;8.370;2023-02-15T09:13:17;8.23;;;4.05;;
18857;SDS011;9558;50.178;8.370;2023-02-15T09:15:44;6.50;;;4.05;;
18857;SDS011;9558;50.178;8.370;2023-02-15T09:18:11;15.50;;;3.92;;
18857;SDS011;9558;50.178;8.370;2023-02-15T09:20:42;9.52;;;4.53;;
18857;SDS011;9558;50.178;8.370;2023-02-15T09:23:09;6.00;;;2.90;;
18857;SDS011;9558;50.178;8.370;2023-02-15T09:25:35;4.22;;;2.75;;
18857;SDS011;9558;50.178;8.370;2023-02-15T09:28:03;7.32;;;4.03;;
18857;SDS011;9558;50.178;8.370;2023-02-15T09:32:56;3.78;;;2.58;;
18857;SDS011;9558;50.178;8.370;2023-02-15T09:35:22;7.88;;;3.88;;
18857;SDS011;9558;50.178;8.370;2023-02-15T09:37:49;8.15;;;3.65;;
18857;SDS011;9558;50.178;8.370;2023-02-15T09:40:15;6.70;;;3.58;;
18857;SDS011;9558;50.178;8.370;2023-02-15T09:45:42;8.30;;;3.78;;
18857;SDS011;9558;50.178;8.370;2023-02-15T09:48:30;4.72;;;3.10;;
18857;SDS011;9558;50.178;8.370;2023-02-15T09:54:00;20.70;;;4.07;;
18857;SDS011;9558;50.178;8.370;2023-02-15T09:56:37;7.65;;;4.00;;
18857;SDS011;9558;50.178;8.370;2023-02-15T09:59:08;7.07;;;3.42;;
18857;SDS011;9558;50.178;8.370;2023-02-15T10:01:44;6.72;;;3.47;;
18857;SDS011;9558;50.178;8.370;2023-02-15T10:04:24;14.75;;;4.65;;
18857;SDS011;9558;50.178;8.370;2023-02-15T10:07:03;8.48;;;4.82;;
18857;SDS011;9558;50.178;8.370;2023-02-15T10:09:43;7.57;;;4.47;;
18857;SDS011;9558;50.178;8.370;2023-02-15T10:12:25;4.30;;;3.58;;
18857;SDS011;9558;50.178;8.370;2023-02-15T10:15:28;15.38;;;3.50;;
18857;SDS011;9558;50.178;8.370;2023-02-15T10:18:06;8.13;;;3.22;;
18857;SDS011;9558;50.178;8.370;2023-02-15T10:20:48;6.43;;;4.68;;
18857;SDS011;9558;50.178;8.370;2023-02-15T10:23:29;3.42;;;1.70;;
18857;SDS011;9558;50.178;8.370;2023-02-15T10:26:07;7.22;;;2.85;;
18857;SDS011;9558;50.178;8.370;2023-02-15T10:28:42;3.70;;;2.35;;
18857;SDS011;9558;50.178;8.370;2023-02-15T10:31:17;4.55;;;2.55;;
18857;SDS011;9558;50.178;8.370;2023-02-15T10:33:52;3.13;;;2.28;;
18857;SDS011;9558;50.178;8.370;2023-02-15T10:36:32;5.00;;;2.50;;
18857;SDS011;9558;50.178;8.370;2023-02-15T10:39:16;4.03;;;2.25;;
18857;SDS011;9558;50.178;8.370;2023-02-15T10:41:53;12.95;;;2.15;;
18857;SDS011;9558;50.178;8.370;2023-02-15T10:44:33;1.98;;;1.20;;
18857;SDS011;9558;50.178;8.370;2023-02-15T10:47:22;24.77;;;2.85;;
18857;SDS011;9558;50.178;8.370;2023-02-15T10:50:06;5.15;;;2.03;;
18857;SDS011;9558;50.178;8.370;2023-02-15T10:52:43;6.38;;;3.88;;
18857;SDS011;9558;50.178;8.370;2023-02-15T10:55:25;9.07;;;3.30;;
18857;SDS011;9558;50.178;8.370;2023-02-15T10:58:04;5.63;;;2.90;;
18857;SDS011;9558;50.178;8.370;2023-02-15T11:00:39;6.22;;;2.55;;
18857;SDS011;9558;50.178;8.370;2023-02-15T11:03:16;9.77;;;4.18;;
18857;SDS011;9558;50.178;8.370;2023-02-15T11:05:57;3.80;;;1.90;;
18857;SDS011;9558;50.178;8.370;2023-02-15T11:10:58;3.85;;;2.17;;
18857;SDS011;9558;50.178;8.370;2023-02-15T11:13:28;6.57;;;3.55;;
18857;SDS011;9558;50.178;8.370;2023-02-15T11:16:00;8.52;;;2.88;;
18857;SDS011;9558;50.178;8.370;2023-02-15T11:18:32;6.90;;;4.03;;
18857;SDS011;9558;50.178;8.370;2023-02-15T11:21:03;6.03;;;3.28;;
18857;SDS011;9558;50.178;8.370;2023-02-15T11:23:33;6.78;;;3.58;;
18857;SDS011;9558;50.178;8.370;2023-02-15T11:26:02;3.70;;;3.08;;
18857;SDS011;9558;50.178;8.370;2023-02-15T11:28:33;19.52;;;4.63;;
18857;SDS011;9558;50.178;8.370;2023-02-15T11:31:10;13.07;;;3.70;;
18857;SDS011;9558;50.178;8.370;2023-02-15T11:33:44;14.25;;;7.35;;
18857;SDS011;9558;50.178;8.370;2023-02-15T11:36:15;10.90;;;5.97;;
18857;SDS011;9558;50.178;8.370;2023-02-15T11:38:44;17.23;;;7.80;;
18857;SDS011;9558;50.178;8.370;2023-02-15T11:41:14;9.70;;;4.90;;
18857;SDS011;9558;50.178;8.370;2023-02-15T11:43:46;21.73;;;10.10;;
18857;SDS011;9558;50.178;8.370;2023-02-15T11:46:19;25.55;;;6.72;;
18857;SDS011;9558;50.178;8.370;2023-02-15T11:48:48;7.13;;;3.60;;
18857;SDS011;9558;50.178;8.370;2023-02-15T11:51:16;12.48;;;6.78;;
18857;SDS011;9558;50.178;8.370;2023-02-15T11:53:45;27.35;;;9.43;;
18857;SDS011;9558;50.178;8.370;2023-02-15T11:56:13;9.65;;;5.30;;
18857;SDS011;9558;50.178;8.370;2023-02-15T11:58:42;14.50;;;6.63;;
18857;SDS011;9558;50.178;8.370;2023-02-15T12:01:13;18.52;;;5.40;;
18857;SDS011;9558;50.178;8.370;2023-02-15T12:03:45;14.57;;;5.97;;
18857;SDS011;9558;50.178;8.370;2023-02-15T12:06:16;7.35;;;5.47;;
18857;SDS011;9558;50.178;8.370;2023-02-15T12:08:49;12.20;;;5.28;;
18857;SDS011;9558;50.178;8.370;2023-02-15T12:11:22;9.80;;;5.55;;
18857;SDS011;9558;50.178;8.370;2023-02-15T12:13:56;20.95;;;9.15;;
18857;SDS011;9558;50.178;8.370;2023-02-15T12:16:23;9.60;;;4.75;;
18857;SDS011;9558;50.178;8.370;2023-02-15T12:18:53;14.45;;;8.13;;
18857;SDS011;9558;50.178;8.370;2023-02-15T12:21:26;12.73;;;5.40;;
18857;SDS011;9558;50.178;8.370;2023-02-15T12:23:56;11.35;;;6.72;;
18857;SDS011;9558;50.178;8.370;2023-02-15T12:26:25;10.88;;;5.60;;
18857;SDS011;9558;50.178;8.370;2023-02-15T12:28:52;12.75;;;5.43;;
18857;SDS011;9558;50.178;8.370;2023-02-15T12:31:23;10.55;;;5.47;;
18857;SDS011;9558;50.178;8.370;2023-02-15T12:33:54;11.43;;;5.55;;
18857;SDS011;9558;50.178;8.370;2023-02-15T12:36:24;9.77;;;5.35;;
18857;SDS011;9558;50.178;8.370;2023-02-15T12:39:03;8.55;;;5.25;;
18857;SDS011;9558;50.178;8.370;2023-02-15T12:41:43;11.40;;;4.65;;
18857;SDS011;9558;50.178;8.370;2023-02-15T12:44:15;21.05;;;6.28;;
18857;SDS011;9558;50.178;8.370;2023-02-15T12:46:47;18.05;;;6.15;;
18857;SDS011;9558;50.178;8.370;2023-02-15T12:49:24;16.52;;;5.70;;
18857;SDS011;9558;50.178;8.370;2023-02-15T12:51:52;11.77;;;4.80;;
18857;SDS011;9558;50.178;8.370;2023-02-15T12:54:27;11.55;;;7.15;;
18857;SDS011;9558;50.178;8.370;2023-02-15T12:56:56;14.90;;;5.47;;
18857;SDS011;9558;50.178;8.370;2023-02-15T12:59:23;11.55;;;7.78;;
18857;SDS011;9558;50.178;8.370;2023-02-15T13:01:50;12.57;;;5.57;;
18857;SDS011;9558;50.178;8.370;2023-02-15T13:04:21;14.73;;;5.28;;
18857;SDS011;9558;50.178;8.370;2023-02-15T13:06:52;16.00;;;6.93;;
18857;SDS011;9558;50.178;8.370;2023-02-15T13:09:23;10.23;;;4.72;;
18857;SDS011;9558;50.178;8.370;2023-02-15T13:12:03;13.20;;;5.90;;
18857;SDS011;9558;50.178;8.370;2023-02-15T13:14:36;11.98;;;5.82;;
18857;SDS011;9558;50.178;8.370;2023-02-15T13:17:03;18.98;;;7.38;;
18857;SDS011;9558;50.178;8.370;2023-02-15T13:19:31;12.18;;;6.72;;
18857;SDS011;9558;50.178;8.370;2023-02-15T13:22:05;15.35;;;4.68;;
18857;SDS011;9558;50.178;8.370;2023-02-15T13:24:35;16.40;;;6.15;;
18857;SDS011;9558;50.178;8.370;2023-02-15T13:27:05;15.35;;;6.53;;
18857;SDS011;9558;50.178;8.370;2023-02-15T13:29:37;9.65;;;5.47;;
18857;SDS011;9558;50.178;8.370;2023-02-15T13:32:07;11.57;;;5.60;;
18857;SDS011;9558;50.178;8.370;2023-02-15T13:37:14;12.15;;;6.15;;
18857;SDS011;9558;50.178;8.370;2023-02-15T13:39:46;16.50;;;6.72;;
18857;SDS011;9558;50.178;8.370;2023-02-15T13:42:19;9.85;;;4.55;;
18857;SDS011;9558;50.178;8.370;2023-02-15T13:44:59;22.63;;;6.28;;
18857;SDS011;9558;50.178;8.370;2023-02-15T13:47:37;9.32;;;4.50;;
18857;SDS011;9558;50.178;8.370;2023-02-15T13:50:17;17.65;;;5.25;;
18857;SDS011;9558;50.178;8.370;2023-02-15T13:52:57;13.07;;;6.40;;
18857;SDS011;9558;50.178;8.370;2023-02-15T13:55:36;24.35;;;5.80;;
18857;SDS011;9558;50.178;8.370;2023-02-15T13:58:13;14.32;;;6.35;;
18857;SDS011;9558;50.178;8.370;2023-02-15T14:01:03;12.52;;;5.75;;
18857;SDS011;9558;50.178;8.370;2023-02-15T14:03:43;19.33;;;5.65;;
18857;SDS011;9558;50.178;8.370;2023-02-15T14:06:31;15.57;;;6.60;;
18857;SDS011;9558;50.178;8.370;2023-02-15T14:09:15;10.02;;;5.85;;
18857;SDS011;9558;50.178;8.370;2023-02-15T14:11:55;12.88;;;6.93;;
18857;SDS011;9558;50.178;8.370;2023-02-15T14:14:35;12.27;;;6.93;;
18857;SDS011;9558;50.178;8.370;2023-02-15T14:17:14;17.20;;;7.50;;
18857;SDS011;9558;50.178;8.370;2023-02-15T14:19:50;10.48;;;6.05;;
18857;SDS011;9558;50.178;8.370;2023-02-15T14:22:22;16.55;;;6.18;;
18857;SDS011;9558;50.178;8.370;2023-02-15T14:25:02;12.18;;;5.60;;
18857;SDS011;9558;50.178;8.370;2023-02-15T14:27:43;15.80;;;6.43;;
18857;SDS011;9558;50.178;8.370;2023-02-15T14:30:18;15.32;;;7.57;;
18857;SDS011;9558;50.178;8.370;2023-02-15T14:32:48;22.00;;;7.72;;
18857;SDS011;9558;50.178;8.370;2023-02-15T14:35:18;16.50;;;8.32;;
18857;SDS011;9558;50.178;8.370;2023-02-15T14:37:49;16.30;;;6.53;;
18857;SDS011;9558;50.178;8.370;2023-02-15T14:40:26;11.70;;;6.18;;
18857;SDS011;9558;50.178;8.370;2023-02-15T14:43:19;15.60;;;6.43;;
18857;SDS011;9558;50.178;8.370;2023-02-15T14:45:58;11.63;;;6.22;;
18857;SDS011;9558;50.178;8.370;2023-02-15T14:48:33;17.83;;;8.48;;
18857;SDS011;9558;50.178;8.370;2023-02-15T14:51:08;9.35;;;5.28;;
18857;SDS011;9558;50.178;8.370;2023-02-15T14:53:36;21.83;;;6.68;;
18857;SDS011;9558;50.178;8.370;2023-02-15T14:56:22;10.60;;;6.55;;
18857;SDS011;9558;50.178;8.370;2023-02-15T14:58:59;14.98;;;7.45;;
18857;SDS011;9558;50.178;8.370;2023-02-15T15:01:41;9.77;;;5.85;;
18857;SDS011;9558;50.178;8.370;2023-02-15T15:04:21;17.88;;;8.45;;
18857;SDS011;9558;50.178;8.370;2023-02-15T15:06:57;16.67;;;6.13;;
18857;SDS011;9558;50.178;8.370;2023-02-15T15:09:28;14.48;;;4.50;;
18857;SDS011;9558;50.178;8.370;2023-02-15T15:12:04;16.95;;;6.88;;
18857;SDS011;9558;50.178;8.370;2023-02-15T15:14:40;18.15;;;8.02;;
18857;SDS011;9558;50.178;8.370;2023-02-15T15:17:10;8.10;;;4.63;;
18857;SDS011;9558;50.178;8.370;2023-02-15T15:22:26;16.73;;;5.50;;
18857;SDS011;9558;50.178;8.370;2023-02-15T15:24:54;11.38;;;5.75;;
18857;SDS011;9558;50.178;8.370;2023-02-15T15:27:42;23.42;;;6.75;;
18857;SDS011;9558;50.178;8.370;2023-02-15T15:33:29;19.95;;;8.27;;
18857;SDS011;9558;50.178;8.370;2023-02-15T15:36:22;12.07;;;6.20;;
18857;SDS011;9558;50.178;8.370;2023-02-15T15:39:12;16.92;;;8.00;;
18857;SDS011;9558;50.178;8.370;2023-02-15T15:42:01;14.93;;;6.80;;
18857;SDS011;9558;50.178;8.370;2023-02-15T15:44:53;13.13;;;6.60;;
18857;SDS011;9558;50.178;8.370;2023-02-15T15:47:37;9.48;;;5.30;;